sensor_id;sensor_type;location;lat;lon;timestamp;P1;durP1;ratioP1;P2;durP2;ratioP2
52322;SDS011;38263;52.920;6.238;2023-04-03T00:02:12;2.10;;;1.40;;
52322;SDS011;38263;52.920;6.238;2023-04-03T00:04:38;3.30;;;1.33;;
52322;SDS011;38263;52.920;6.238;2023-04-03T00:07:04;1.80;;;1.27;;
52322;SDS011;38263;52.920;6.238;2023-04-03T00:09:30;2.45;;;1.10;;
52322;SDS011;38263;52.920;6.238;2023-04-03T00:11:56;2.20;;;1.45;;
52322;SDS011;38263;52.920;6.238;2023-04-03T00:14:22;4.22;;;1.55;;
52322;SDS011;38263;52.920;6.238;2023-04-03T00:16:48;2.38;;;1.08;;
52322;SDS011;38263;52.920;6.238;2023-04-03T00:19:14;3.85;;;1.20;;
52322;SDS011;38263;52.920;6.238;2023-04-03T00:21:40;1.67;;;1.33;;
52322;SDS011;38263;52.920;6.238;2023-04-03T00:24:06;3.15;;;1.33;;
52322;SDS011;38263;52.920;6.238;2023-04-03T00:26:32;1.77;;;1.30;;
52322;SDS011;38263;52.920;6.238;2023-04-03T00:28:58;2.78;;;1.30;;
52322;SDS011;38263;52.920;6.238;2023-04-03T00:31:24;2.55;;;1.20;;
52322;SDS011;38263;52.920;6.238;2023-04-03T00:33:50;2.50;;;1.20;;
52322;SDS011;38263;52.920;6.238;2023-04-03T00:36:16;1.65;;;1.55;;
52322;SDS011;38263;52.920;6.238;2023-04-03T00:38:42;1.45;;;0.95;;
52322;SDS011;38263;52.920;6.238;2023-04-03T00:41:08;4.40;;;1.80;;
52322;SDS011;38263;52.920;6.238;2023-04-03T00:43:34;2.47;;;1.20;;
52322;SDS011;38263;52.920;6.238;2023-04-03T00:46:00;1.92;;;1.13;;
52322;SDS011;38263;52.920;6.238;2023-04-03T00:48:45;1.95;;;1.40;;
52322;SDS011;38263;52.920;6.238;2023-04-03T00:51:16;6.10;;;1.30;;
52322;SDS011;38263;52.920;6.238;2023-04-03T00:56:14;2.17;;;1.35;;
52322;SDS011;38263;52.920;6.238;2023-04-03T00:58:45;4.30;;;1.67;;
52322;SDS011;38263;52.920;6.238;2023-04-03T01:01:13;2.25;;;1.30;;
52322;SDS011;38263;52.920;6.238;2023-04-03T01:03:43;3.00;;;1.60;;
52322;SDS011;38263;52.920;6.238;2023-04-03T01:06:09;1.83;;;1.50;;
52322;SDS011;38263;52.920;6.238;2023-04-03T01:08:35;1.98;;;1.20;;
52322;SDS011;38263;52.920;6.238;2023-04-03T01:11:01;2.45;;;1.50;;
52322;SDS011;38263;52.920;6.238;2023-04-03T01:13:29;4.80;;;1.42;;
52322;SDS011;38263;52.920;6.238;2023-04-03T01:15:56;2.42;;;1.40;;
52322;SDS011;38263;52.920;6.238;2023-04-03T01:18:24;1.77;;;1.27;;
52322;SDS011;38263;52.920;6.238;2023-04-03T01:21:03;3.03;;;1.40;;
52322;SDS011;38263;52.920;6.238;2023-04-03T01:26:18;2.17;;;1.30;;
52322;SDS011;38263;52.920;6.238;2023-04-03T01:28:45;4.68;;;1.48;;
52322;SDS011;38263;52.920;6.238;2023-04-03T01:31:22;4.75;;;2.00;;
52322;SDS011;38263;52.920;6.238;2023-04-03T01:33:49;3.15;;;1.80;;
52322;SDS011;38263;52.920;6.238;2023-04-03T01:36:17;2.42;;;1.70;;
52322;SDS011;38263;52.920;6.238;2023-04-03T01:38:43;3.92;;;1.70;;
52322;SDS011;38263;52.920;6.238;2023-04-03T01:41:09;2.60;;;1.58;;
52322;SDS011;38263;52.920;6.238;2023-04-03T01:43:35;3.70;;;1.70;;
52322;SDS011;38263;52.920;6.238;2023-04-03T01:46:01;3.25;;;1.52;;
52322;SDS011;38263;52.920;6.238;2023-04-03T01:48:27;4.13;;;1.50;;
52322;SDS011;38263;52.920;6.238;2023-04-03T01:50:53;3.20;;;1.50;;
52322;SDS011;38263;52.920;6.238;2023-04-03T01:53:19;1.58;;;1.27;;
52322;SDS011;38263;52.920;6.238;2023-04-03T01:55:45;3.08;;;1.50;;
52322;SDS011;38263;52.920;6.238;2023-04-03T01:58:11;3.10;;;1.35;;
52322;SDS011;38263;52.920;6.238;2023-04-03T02:00:37;4.13;;;1.42;;
52322;SDS011;38263;52.920;6.238;2023-04-03T02:03:03;4.03;;;1.42;;
52322;SDS011;38263;52.920;6.238;2023-04-03T02:05:29;2.15;;;1.40;;
52322;SDS011;38263;52.920;6.238;2023-04-03T02:07:55;2.75;;;1.38;;
52322;SDS011;38263;52.920;6.238;2023-04-03T02:10:21;3.15;;;1.83;;
52322;SDS011;38263;52.920;6.238;2023-04-03T02:12:47;3.13;;;1.73;;
52322;SDS011;38263;52.920;6.238;2023-04-03T02:15:13;3.75;;;1.42;;
52322;SDS011;38263;52.920;6.238;2023-04-03T02:17:40;3.47;;;1.48;;
52322;SDS011;38263;52.920;6.238;2023-04-03T02:20:06;2.35;;;1.90;;
52322;SDS011;38263;52.920;6.238;2023-04-03T02:22:32;5.70;;;1.83;;
52322;SDS011;38263;52.920;6.238;2023-04-03T02:24:58;4.07;;;1.95;;
52322;SDS011;38263;52.920;6.238;2023-04-03T02:27:24;3.10;;;1.52;;
52322;SDS011;38263;52.920;6.238;2023-04-03T02:29:50;2.83;;;2.25;;
52322;SDS011;38263;52.920;6.238;2023-04-03T02:32:16;4.70;;;1.40;;
52322;SDS011;38263;52.920;6.238;2023-04-03T02:34:42;4.47;;;1.80;;
52322;SDS011;38263;52.920;6.238;2023-04-03T02:37:08;2.45;;;1.55;;
52322;SDS011;38263;52.920;6.238;2023-04-03T02:39:34;2.83;;;1.55;;
52322;SDS011;38263;52.920;6.238;2023-04-03T02:42:00;2.65;;;1.48;;
52322;SDS011;38263;52.920;6.238;2023-04-03T02:44:26;1.88;;;1.33;;
52322;SDS011;38263;52.920;6.238;2023-04-03T02:46:52;3.35;;;1.70;;
52322;SDS011;38263;52.920;6.238;2023-04-03T02:49:18;2.15;;;1.55;;
52322;SDS011;38263;52.920;6.238;2023-04-03T02:51:44;4.85;;;2.00;;
52322;SDS011;38263;52.920;6.238;2023-04-03T02:54:11;6.05;;;1.92;;
52322;SDS011;38263;52.920;6.238;2023-04-03T02:56:37;2.13;;;1.67;;
52322;SDS011;38263;52.920;6.238;2023-04-03T02:59:03;2.97;;;1.67;;
52322;SDS011;38263;52.920;6.238;2023-04-03T03:01:30;2.55;;;1.73;;
52322;SDS011;38263;52.920;6.238;2023-04-03T03:03:57;4.82;;;1.75;;
52322;SDS011;38263;52.920;6.238;2023-04-03T03:06:23;4.75;;;2.28;;
52322;SDS011;38263;52.920;6.238;2023-04-03T03:08:49;4.78;;;3.33;;
52322;SDS011;38263;52.920;6.238;2023-04-03T03:11:15;4.53;;;1.90;;
52322;SDS011;38263;52.920;6.238;2023-04-03T03:13:41;4.53;;;1.60;;
52322;SDS011;38263;52.920;6.238;2023-04-03T03:16:08;3.92;;;1.92;;
52322;SDS011;38263;52.920;6.238;2023-04-03T03:18:34;2.00;;;1.35;;
52322;SDS011;38263;52.920;6.238;2023-04-03T03:21:01;4.70;;;1.70;;
52322;SDS011;38263;52.920;6.238;2023-04-03T03:23:28;8.70;;;2.03;;
52322;SDS011;38263;52.920;6.238;2023-04-03T03:25:58;3.58;;;1.58;;
52322;SDS011;38263;52.920;6.238;2023-04-03T03:28:24;2.85;;;1.77;;
52322;SDS011;38263;52.920;6.238;2023-04-03T03:30:50;3.67;;;2.03;;
52322;SDS011;38263;52.920;6.238;2023-04-03T03:33:16;2.58;;;1.58;;
52322;SDS011;38263;52.920;6.238;2023-04-03T03:35:43;3.22;;;1.77;;
52322;SDS011;38263;52.920;6.238;2023-04-03T03:38:09;3.20;;;1.80;;
52322;SDS011;38263;52.920;6.238;2023-04-03T03:40:35;6.10;;;1.83;;
52322;SDS011;38263;52.920;6.238;2023-04-03T03:43:01;6.70;;;1.80;;
52322;SDS011;38263;52.920;6.238;2023-04-03T03:45:27;6.32;;;2.45;;
52322;SDS011;38263;52.920;6.238;2023-04-03T03:47:53;4.05;;;2.30;;
52322;SDS011;38263;52.920;6.238;2023-04-03T03:50:19;4.22;;;1.98;;
52322;SDS011;38263;52.920;6.238;2023-04-03T03:52:45;3.00;;;2.05;;
52322;SDS011;38263;52.920;6.238;2023-04-03T03:55:11;5.95;;;2.15;;
52322;SDS011;38263;52.920;6.238;2023-04-03T03:57:37;3.38;;;2.00;;
52322;SDS011;38263;52.920;6.238;2023-04-03T04:00:03;2.05;;;1.58;;
52322;SDS011;38263;52.920;6.238;2023-04-03T04:02:29;2.60;;;1.70;;
52322;SDS011;38263;52.920;6.238;2023-04-03T04:04:55;2.03;;;1.50;;
52322;SDS011;38263;52.920;6.238;2023-04-03T04:07:21;6.20;;;1.92;;
52322;SDS011;38263;52.920;6.238;2023-04-03T04:09:47;4.90;;;1.70;;
52322;SDS011;38263;52.920;6.238;2023-04-03T04:12:13;6.38;;;2.35;;
52322;SDS011;38263;52.920;6.238;2023-04-03T04:14:40;3.47;;;2.58;;
52322;SDS011;38263;52.920;6.238;2023-04-03T04:17:06;2.63;;;2.42;;
52322;SDS011;38263;52.920;6.238;2023-04-03T04:19:32;4.93;;;1.80;;
52322;SDS011;38263;52.920;6.238;2023-04-03T04:21:58;3.60;;;1.75;;
52322;SDS011;38263;52.920;6.238;2023-04-03T04:24:24;4.20;;;1.90;;
52322;SDS011;38263;52.920;6.238;2023-04-03T04:26:50;5.55;;;2.08;;
52322;SDS011;38263;52.920;6.238;2023-04-03T04:29:16;2.95;;;1.85;;
52322;SDS011;38263;52.920;6.238;2023-04-03T04:31:42;7.90;;;2.08;;
52322;SDS011;38263;52.920;6.238;2023-04-03T04:34:08;2.75;;;1.83;;
52322;SDS011;38263;52.920;6.238;2023-04-03T04:36:34;5.75;;;2.20;;
52322;SDS011;38263;52.920;6.238;2023-04-03T04:39:00;4.22;;;2.08;;
52322;SDS011;38263;52.920;6.238;2023-04-03T04:41:26;3.53;;;1.95;;
52322;SDS011;38263;52.920;6.238;2023-04-03T04:43:52;4.35;;;2.25;;
52322;SDS011;38263;52.920;6.238;2023-04-03T04:46:18;3.72;;;2.30;;
52322;SDS011;38263;52.920;6.238;2023-04-03T04:48:44;6.05;;;3.58;;
52322;SDS011;38263;52.920;6.238;2023-04-03T04:51:10;3.97;;;1.90;;
52322;SDS011;38263;52.920;6.238;2023-04-03T04:53:36;2.78;;;1.67;;
52322;SDS011;38263;52.920;6.238;2023-04-03T04:56:02;6.35;;;2.58;;
52322;SDS011;38263;52.920;6.238;2023-04-03T04:58:28;4.90;;;2.15;;
52322;SDS011;38263;52.920;6.238;2023-04-03T05:01:01;4.20;;;2.28;;
52322;SDS011;38263;52.920;6.238;2023-04-03T05:03:27;7.05;;;2.38;;
52322;SDS011;38263;52.920;6.238;2023-04-03T05:05:53;6.50;;;2.85;;
52322;SDS011;38263;52.920;6.238;2023-04-03T05:08:20;5.68;;;2.58;;
52322;SDS011;38263;52.920;6.238;2023-04-03T05:10:46;4.22;;;2.30;;
52322;SDS011;38263;52.920;6.238;2023-04-03T05:13:12;3.38;;;2.30;;
52322;SDS011;38263;52.920;6.238;2023-04-03T05:15:38;3.28;;;2.17;;
52322;SDS011;38263;52.920;6.238;2023-04-03T05:18:04;3.95;;;2.50;;
52322;SDS011;38263;52.920;6.238;2023-04-03T05:20:31;5.03;;;2.88;;
52322;SDS011;38263;52.920;6.238;2023-04-03T05:22:57;5.05;;;2.83;;
52322;SDS011;38263;52.920;6.238;2023-04-03T05:25:23;4.93;;;2.53;;
52322;SDS011;38263;52.920;6.238;2023-04-03T05:27:49;4.50;;;2.42;;
52322;SDS011;38263;52.920;6.238;2023-04-03T05:30:15;5.85;;;2.00;;
52322;SDS011;38263;52.920;6.238;2023-04-03T05:32:41;4.90;;;2.50;;
52322;SDS011;38263;52.920;6.238;2023-04-03T05:35:07;4.38;;;2.67;;
52322;SDS011;38263;52.920;6.238;2023-04-03T05:37:34;5.13;;;2.40;;
52322;SDS011;38263;52.920;6.238;2023-04-03T05:40:00;3.67;;;2.35;;
52322;SDS011;38263;52.920;6.238;2023-04-03T05:42:26;4.10;;;2.75;;
52322;SDS011;38263;52.920;6.238;2023-04-03T05:44:52;11.02;;;2.92;;
52322;SDS011;38263;52.920;6.238;2023-04-03T05:47:18;7.38;;;2.92;;
52322;SDS011;38263;52.920;6.238;2023-04-03T05:49:44;11.35;;;3.45;;
52322;SDS011;38263;52.920;6.238;2023-04-03T05:52:25;8.15;;;2.58;;
52322;SDS011;38263;52.920;6.238;2023-04-03T05:54:53;4.40;;;2.70;;
52322;SDS011;38263;52.920;6.238;2023-04-03T05:57:19;5.38;;;3.20;;
52322;SDS011;38263;52.920;6.238;2023-04-03T05:59:45;7.88;;;2.63;;
52322;SDS011;38263;52.920;6.238;2023-04-03T06:02:12;8.65;;;2.85;;
52322;SDS011;38263;52.920;6.238;2023-04-03T06:04:39;5.82;;;2.45;;
52322;SDS011;38263;52.920;6.238;2023-04-03T06:07:05;7.45;;;3.67;;
52322;SDS011;38263;52.920;6.238;2023-04-03T06:09:32;9.38;;;2.80;;
52322;SDS011;38263;52.920;6.238;2023-04-03T06:11:58;5.43;;;3.33;;
52322;SDS011;38263;52.920;6.238;2023-04-03T06:14:25;8.00;;;2.60;;
52322;SDS011;38263;52.920;6.238;2023-04-03T06:16:51;7.35;;;2.47;;
52322;SDS011;38263;52.920;6.238;2023-04-03T06:19:17;4.32;;;2.42;;
52322;SDS011;38263;52.920;6.238;2023-04-03T06:21:43;4.38;;;2.80;;
52322;SDS011;38263;52.920;6.238;2023-04-03T06:24:10;5.25;;;2.88;;
52322;SDS011;38263;52.920;6.238;2023-04-03T06:26:38;5.85;;;2.88;;
52322;SDS011;38263;52.920;6.238;2023-04-03T06:29:04;7.15;;;2.40;;
52322;SDS011;38263;52.920;6.238;2023-04-03T06:31:30;3.95;;;2.35;;
52322;SDS011;38263;52.920;6.238;2023-04-03T06:33:56;6.90;;;1.98;;
52322;SDS011;38263;52.920;6.238;2023-04-03T06:36:22;3.50;;;2.00;;
52322;SDS011;38263;52.920;6.238;2023-04-03T06:38:48;4.70;;;2.88;;
52322;SDS011;38263;52.920;6.238;2023-04-03T06:41:14;3.35;;;2.30;;
52322;SDS011;38263;52.920;6.238;2023-04-03T06:43:41;4.38;;;2.22;;
52322;SDS011;38263;52.920;6.238;2023-04-03T06:46:12;4.85;;;1.75;;
52322;SDS011;38263;52.920;6.238;2023-04-03T06:48:45;8.07;;;2.10;;
52322;SDS011;38263;52.920;6.238;2023-04-03T06:51:17;6.18;;;3.25;;
52322;SDS011;38263;52.920;6.238;2023-04-03T06:53:50;5.43;;;2.45;;
52322;SDS011;38263;52.920;6.238;2023-04-03T06:56:17;5.93;;;2.40;;
52322;SDS011;38263;52.920;6.238;2023-04-03T06:58:43;5.07;;;2.28;;
52322;SDS011;38263;52.920;6.238;2023-04-03T07:01:10;4.63;;;2.10;;
52322;SDS011;38263;52.920;6.238;2023-04-03T07:03:37;5.25;;;2.00;;
52322;SDS011;38263;52.920;6.238;2023-04-03T07:06:04;4.40;;;2.67;;
52322;SDS011;38263;52.920;6.238;2023-04-03T07:08:30;8.68;;;2.53;;
52322;SDS011;38263;52.920;6.238;2023-04-03T07:10:57;4.03;;;2.58;;
52322;SDS011;38263;52.920;6.238;2023-04-03T07:13:23;6.13;;;2.13;;
52322;SDS011;38263;52.920;6.238;2023-04-03T07:15:49;7.43;;;1.88;;
52322;SDS011;38263;52.920;6.238;2023-04-03T07:18:15;5.47;;;2.17;;
52322;SDS011;38263;52.920;6.238;2023-04-03T07:20:45;5.63;;;2.20;;
52322;SDS011;38263;52.920;6.238;2023-04-03T07:23:11;8.60;;;3.47;;
52322;SDS011;38263;52.920;6.238;2023-04-03T07:25:37;5.38;;;1.88;;
52322;SDS011;38263;52.920;6.238;2023-04-03T07:28:07;4.88;;;2.03;;
52322;SDS011;38263;52.920;6.238;2023-04-03T07:30:33;8.43;;;1.77;;
52322;SDS011;38263;52.920;6.238;2023-04-03T07:32:59;3.17;;;1.98;;
52322;SDS011;38263;52.920;6.238;2023-04-03T07:35:26;2.50;;;1.48;;
52322;SDS011;38263;52.920;6.238;2023-04-03T07:37:52;5.50;;;1.90;;
52322;SDS011;38263;52.920;6.238;2023-04-03T07:40:18;3.50;;;1.50;;
52322;SDS011;38263;52.920;6.238;2023-04-03T07:42:44;4.57;;;1.83;;
52322;SDS011;38263;52.920;6.238;2023-04-03T07:45:10;3.58;;;1.77;;
52322;SDS011;38263;52.920;6.238;2023-04-03T07:47:36;3.13;;;1.70;;
52322;SDS011;38263;52.920;6.238;2023-04-03T07:50:02;4.97;;;1.63;;
52322;SDS011;38263;52.920;6.238;2023-04-03T07:52:28;3.35;;;1.60;;
52322;SDS011;38263;52.920;6.238;2023-04-03T07:54:54;4.68;;;2.13;;
52322;SDS011;38263;52.920;6.238;2023-04-03T07:57:20;2.55;;;1.45;;
52322;SDS011;38263;52.920;6.238;2023-04-03T07:59:46;2.65;;;1.70;;
52322;SDS011;38263;52.920;6.238;2023-04-03T08:02:12;2.47;;;1.55;;
52322;SDS011;38263;52.920;6.238;2023-04-03T08:04:38;2.38;;;1.30;;
52322;SDS011;38263;52.920;6.238;2023-04-03T08:07:04;3.67;;;1.50;;
52322;SDS011;38263;52.920;6.238;2023-04-03T08:09:30;4.75;;;1.50;;
52322;SDS011;38263;52.920;6.238;2023-04-03T08:11:57;4.00;;;1.50;;
52322;SDS011;38263;52.920;6.238;2023-04-03T08:14:22;6.30;;;1.50;;
52322;SDS011;38263;52.920;6.238;2023-04-03T08:16:49;3.22;;;1.75;;
52322;SDS011;38263;52.920;6.238;2023-04-03T08:19:15;2.80;;;1.48;;
52322;SDS011;38263;52.920;6.238;2023-04-03T08:21:42;3.08;;;1.52;;
52322;SDS011;38263;52.920;6.238;2023-04-03T08:24:09;3.38;;;1.50;;
52322;SDS011;38263;52.920;6.238;2023-04-03T08:26:35;3.90;;;1.65;;
52322;SDS011;38263;52.920;6.238;2023-04-03T08:29:01;4.60;;;1.90;;
52322;SDS011;38263;52.920;6.238;2023-04-03T08:31:27;4.55;;;1.83;;
52322;SDS011;38263;52.920;6.238;2023-04-03T08:33:53;4.35;;;1.50;;
52322;SDS011;38263;52.920;6.238;2023-04-03T08:36:20;3.00;;;1.63;;
52322;SDS011;38263;52.920;6.238;2023-04-03T08:38:47;4.95;;;1.58;;
52322;SDS011;38263;52.920;6.238;2023-04-03T08:41:15;2.17;;;1.27;;
52322;SDS011;38263;52.920;6.238;2023-04-03T08:46:11;3.35;;;1.60;;
52322;SDS011;38263;52.920;6.238;2023-04-03T08:48:41;7.50;;;1.48;;
52322;SDS011;38263;52.920;6.238;2023-04-03T08:51:12;2.85;;;1.40;;
52322;SDS011;38263;52.920;6.238;2023-04-03T08:53:43;2.33;;;1.70;;
52322;SDS011;38263;52.920;6.238;2023-04-03T08:56:12;1.90;;;1.33;;
52322;SDS011;38263;52.920;6.238;2023-04-03T08:58:50;5.10;;;1.70;;
52322;SDS011;38263;52.920;6.238;2023-04-03T09:06:23;3.33;;;1.70;;
52322;SDS011;38263;52.920;6.238;2023-04-03T09:08:53;2.38;;;1.60;;
52322;SDS011;38263;52.920;6.238;2023-04-03T09:11:26;5.50;;;1.80;;
52322;SDS011;38263;52.920;6.238;2023-04-03T09:16:20;3.15;;;1.40;;
52322;SDS011;38263;52.920;6.238;2023-04-03T09:18:52;2.95;;;1.85;;
52322;SDS011;38263;52.920;6.238;2023-04-03T09:21:31;2.78;;;1.33;;
52322;SDS011;38263;52.920;6.238;2023-04-03T09:24:00;5.80;;;1.67;;
52322;SDS011;38263;52.920;6.238;2023-04-03T09:26:30;3.95;;;1.65;;
52322;SDS011;38263;52.920;6.238;2023-04-03T09:28:58;2.88;;;1.23;;
52322;SDS011;38263;52.920;6.238;2023-04-03T09:31:46;3.40;;;1.17;;
52322;SDS011;38263;52.920;6.238;2023-04-03T09:36:48;1.55;;;1.23;;
52322;SDS011;38263;52.920;6.238;2023-04-03T09:39:15;1.55;;;0.88;;
52322;SDS011;38263;52.920;6.238;2023-04-03T09:41:42;3.83;;;1.42;;
52322;SDS011;38263;52.920;6.238;2023-04-03T09:44:21;5.43;;;1.60;;
52322;SDS011;38263;52.920;6.238;2023-04-03T09:46:49;1.73;;;1.08;;
52322;SDS011;38263;52.920;6.238;2023-04-03T09:49:15;1.95;;;0.90;;
52322;SDS011;38263;52.920;6.238;2023-04-03T09:51:42;3.20;;;1.27;;
52322;SDS011;38263;52.920;6.238;2023-04-03T09:54:30;3.63;;;1.33;;
52322;SDS011;38263;52.920;6.238;2023-04-03T09:57:07;3.05;;;1.40;;
52322;SDS011;38263;52.920;6.238;2023-04-03T09:59:34;1.70;;;1.60;;
52322;SDS011;38263;52.920;6.238;2023-04-03T10:02:04;1.25;;;1.15;;
52322;SDS011;38263;52.920;6.238;2023-04-03T10:04:43;2.80;;;1.30;;
52322;SDS011;38263;52.920;6.238;2023-04-03T10:07:29;3.42;;;1.48;;
52322;SDS011;38263;52.920;6.238;2023-04-03T10:09:57;1.88;;;0.93;;
52322;SDS011;38263;52.920;6.238;2023-04-03T10:12:24;2.55;;;1.23;;
52322;SDS011;38263;52.920;6.238;2023-04-03T10:22:56;1.48;;;1.13;;
52322;SDS011;38263;52.920;6.238;2023-04-03T10:27:56;2.05;;;1.25;;
52322;SDS011;38263;52.920;6.238;2023-04-03T10:33:19;1.45;;;0.85;;
52322;SDS011;38263;52.920;6.238;2023-04-03T10:36:02;2.42;;;1.00;;
52322;SDS011;38263;52.920;6.238;2023-04-03T10:41:07;3.05;;;1.10;;
52322;SDS011;38263;52.920;6.238;2023-04-03T10:43:38;1.63;;;1.00;;
52322;SDS011;38263;52.920;6.238;2023-04-03T10:48:56;2.92;;;1.00;;
52322;SDS011;38263;52.920;6.238;2023-04-03T10:51:33;2.30;;;1.02;;
52322;SDS011;38263;52.920;6.238;2023-04-03T10:54:14;1.35;;;0.95;;
52322;SDS011;38263;52.920;6.238;2023-04-03T10:56:48;2.50;;;1.40;;
52322;SDS011;38263;52.920;6.238;2023-04-03T10:59:33;1.65;;;0.90;;
52322;SDS011;38263;52.920;6.238;2023-04-03T11:02:04;1.00;;;1.00;;
52322;SDS011;38263;52.920;6.238;2023-04-03T11:04:33;3.78;;;1.17;;
52322;SDS011;38263;52.920;6.238;2023-04-03T11:07:34;2.65;;;1.10;;
52322;SDS011;38263;52.920;6.238;2023-04-03T11:09:54;2.42;;;1.30;;
52322;SDS011;38263;52.920;6.238;2023-04-03T11:15:11;5.60;;;1.23;;
52322;SDS011;38263;52.920;6.238;2023-04-03T11:17:43;2.03;;;1.15;;
52322;SDS011;38263;52.920;6.238;2023-04-03T11:20:20;2.15;;;1.30;;
52322;SDS011;38263;52.920;6.238;2023-04-03T11:22:53;5.07;;;1.35;;
52322;SDS011;38263;52.920;6.238;2023-04-03T11:25:26;1.63;;;1.52;;
52322;SDS011;38263;52.920;6.238;2023-04-03T11:27:59;2.35;;;1.15;;
52322;SDS011;38263;52.920;6.238;2023-04-03T11:30:41;2.80;;;1.30;;
52322;SDS011;38263;52.920;6.238;2023-04-03T11:33:19;1.63;;;1.40;;
52322;SDS011;38263;52.920;6.238;2023-04-03T11:35:48;2.97;;;1.35;;
52322;SDS011;38263;52.920;6.238;2023-04-03T11:38:23;2.10;;;1.08;;
52322;SDS011;38263;52.920;6.238;2023-04-03T11:40:51;1.50;;;0.98;;
52322;SDS011;38263;52.920;6.238;2023-04-03T11:46:05;2.03;;;1.17;;
52322;SDS011;38263;52.920;6.238;2023-04-03T11:51:01;3.33;;;1.48;;
52322;SDS011;38263;52.920;6.238;2023-04-03T11:53:35;1.45;;;1.35;;
52322;SDS011;38263;52.920;6.238;2023-04-03T11:56:02;2.92;;;1.50;;
52322;SDS011;38263;52.920;6.238;2023-04-03T11:58:30;3.35;;;1.17;;
52322;SDS011;38263;52.920;6.238;2023-04-03T12:01:06;2.13;;;1.10;;
52322;SDS011;38263;52.920;6.238;2023-04-03T12:11:44;3.67;;;1.48;;
52322;SDS011;38263;52.920;6.238;2023-04-03T12:16:33;3.47;;;1.40;;
52322;SDS011;38263;52.920;6.238;2023-04-03T12:24:28;2.15;;;1.45;;
52322;SDS011;38263;52.920;6.238;2023-04-03T12:37:27;3.95;;;1.33;;
52322;SDS011;38263;52.920;6.238;2023-04-03T12:40:05;5.22;;;1.50;;
52322;SDS011;38263;52.920;6.238;2023-04-03T12:45:16;4.28;;;1.30;;
52322;SDS011;38263;52.920;6.238;2023-04-03T12:47:43;4.00;;;1.48;;
52322;SDS011;38263;52.920;6.238;2023-04-03T12:50:17;2.83;;;1.48;;
52322;SDS011;38263;52.920;6.238;2023-04-03T12:52:47;2.83;;;1.40;;
52322;SDS011;38263;52.920;6.238;2023-04-03T12:55:19;3.55;;;1.73;;
52322;SDS011;38263;52.920;6.238;2023-04-03T12:57:45;2.95;;;1.40;;
52322;SDS011;38263;52.920;6.238;2023-04-03T13:00:29;2.35;;;1.13;;
52322;SDS011;38263;52.920;6.238;2023-04-03T13:02:57;3.22;;;1.60;;
52322;SDS011;38263;52.920;6.238;2023-04-03T13:05:23;2.80;;;1.20;;
52322;SDS011;38263;52.920;6.238;2023-04-03T13:07:51;2.22;;;1.40;;
52322;SDS011;38263;52.920;6.238;2023-04-03T13:10:18;3.50;;;1.98;;
52322;SDS011;38263;52.920;6.238;2023-04-03T13:12:45;3.05;;;2.10;;
52322;SDS011;38263;52.920;6.238;2023-04-03T13:15:15;3.90;;;1.65;;
52322;SDS011;38263;52.920;6.238;2023-04-03T13:17:42;2.47;;;1.50;;
52322;SDS011;38263;52.920;6.238;2023-04-03T13:20:09;2.47;;;1.27;;
52322;SDS011;38263;52.920;6.238;2023-04-03T13:22:48;2.05;;;1.38;;
52322;SDS011;38263;52.920;6.238;2023-04-03T13:25:15;2.95;;;2.15;;
52322;SDS011;38263;52.920;6.238;2023-04-03T13:27:42;1.98;;;1.58;;
52322;SDS011;38263;52.920;6.238;2023-04-03T13:30:23;3.20;;;1.83;;
52322;SDS011;38263;52.920;6.238;2023-04-03T13:32:50;2.90;;;1.70;;
52322;SDS011;38263;52.920;6.238;2023-04-03T13:35:33;3.17;;;1.70;;
52322;SDS011;38263;52.920;6.238;2023-04-03T13:38:02;2.67;;;1.27;;
52322;SDS011;38263;52.920;6.238;2023-04-03T13:40:28;3.58;;;1.38;;
52322;SDS011;38263;52.920;6.238;2023-04-03T13:45:28;3.72;;;1.38;;
52322;SDS011;38263;52.920;6.238;2023-04-03T13:51:00;3.05;;;1.33;;
52322;SDS011;38263;52.920;6.238;2023-04-03T13:53:26;3.67;;;1.60;;
52322;SDS011;38263;52.920;6.238;2023-04-03T13:55:55;5.43;;;1.55;;
52322;SDS011;38263;52.920;6.238;2023-04-03T13:58:31;3.55;;;1.40;;
52322;SDS011;38263;52.920;6.238;2023-04-03T14:03:42;4.85;;;1.67;;
52322;SDS011;38263;52.920;6.238;2023-04-03T14:06:10;3.35;;;1.88;;
52322;SDS011;38263;52.920;6.238;2023-04-03T14:08:36;3.22;;;1.42;;
52322;SDS011;38263;52.920;6.238;2023-04-03T14:11:02;3.72;;;1.38;;
52322;SDS011;38263;52.920;6.238;2023-04-03T14:13:29;2.33;;;1.65;;
52322;SDS011;38263;52.920;6.238;2023-04-03T14:15:55;2.90;;;1.60;;
52322;SDS011;38263;52.920;6.238;2023-04-03T14:18:21;3.30;;;1.48;;
52322;SDS011;38263;52.920;6.238;2023-04-03T14:20:48;3.75;;;2.20;;
52322;SDS011;38263;52.920;6.238;2023-04-03T14:23:14;3.70;;;1.63;;
52322;SDS011;38263;52.920;6.238;2023-04-03T14:25:41;2.30;;;1.52;;
52322;SDS011;38263;52.920;6.238;2023-04-03T14:28:15;4.45;;;1.63;;
52322;SDS011;38263;52.920;6.238;2023-04-03T14:30:42;3.85;;;1.75;;
52322;SDS011;38263;52.920;6.238;2023-04-03T14:33:10;2.53;;;1.33;;
52322;SDS011;38263;52.920;6.238;2023-04-03T14:35:36;2.92;;;1.77;;
52322;SDS011;38263;52.920;6.238;2023-04-03T14:38:04;2.70;;;1.77;;
52322;SDS011;38263;52.920;6.238;2023-04-03T14:40:31;3.45;;;1.77;;
52322;SDS011;38263;52.920;6.238;2023-04-03T14:42:57;2.13;;;1.40;;
52322;SDS011;38263;52.920;6.238;2023-04-03T14:45:23;2.78;;;1.48;;
52322;SDS011;38263;52.920;6.238;2023-04-03T14:47:51;4.65;;;1.67;;
52322;SDS011;38263;52.920;6.238;2023-04-03T14:50:24;5.47;;;1.92;;
52322;SDS011;38263;52.920;6.238;2023-04-03T14:52:51;3.83;;;2.17;;
52322;SDS011;38263;52.920;6.238;2023-04-03T14:55:19;4.35;;;1.80;;
52322;SDS011;38263;52.920;6.238;2023-04-03T14:57:45;4.20;;;2.10;;
52322;SDS011;38263;52.920;6.238;2023-04-03T15:00:18;1.52;;;1.13;;
52322;SDS011;38263;52.920;6.238;2023-04-03T15:02:44;2.45;;;1.80;;
52322;SDS011;38263;52.920;6.238;2023-04-03T15:05:11;3.03;;;1.67;;
52322;SDS011;38263;52.920;6.238;2023-04-03T15:07:41;3.70;;;1.65;;
52322;SDS011;38263;52.920;6.238;2023-04-03T15:10:25;2.45;;;1.40;;
52322;SDS011;38263;52.920;6.238;2023-04-03T15:12:52;2.85;;;1.33;;
52322;SDS011;38263;52.920;6.238;2023-04-03T15:15:18;3.83;;;1.65;;
52322;SDS011;38263;52.920;6.238;2023-04-03T15:17:45;4.60;;;1.73;;
52322;SDS011;38263;52.920;6.238;2023-04-03T15:20:14;4.03;;;1.63;;
52322;SDS011;38263;52.920;6.238;2023-04-03T15:22:40;3.58;;;1.63;;
52322;SDS011;38263;52.920;6.238;2023-04-03T15:25:06;2.53;;;1.45;;
52322;SDS011;38263;52.920;6.238;2023-04-03T15:27:32;3.42;;;1.45;;
52322;SDS011;38263;52.920;6.238;2023-04-03T15:29:58;3.88;;;1.52;;
52322;SDS011;38263;52.920;6.238;2023-04-03T15:32:24;3.58;;;1.50;;
52322;SDS011;38263;52.920;6.238;2023-04-03T15:34:50;3.30;;;1.50;;
52322;SDS011;38263;52.920;6.238;2023-04-03T15:37:16;4.18;;;1.60;;
52322;SDS011;38263;52.920;6.238;2023-04-03T15:39:42;2.33;;;1.55;;
52322;SDS011;38263;52.920;6.238;2023-04-03T15:42:08;3.35;;;1.52;;
52322;SDS011;38263;52.920;6.238;2023-04-03T15:44:34;3.05;;;1.70;;
52322;SDS011;38263;52.920;6.238;2023-04-03T15:47:00;3.97;;;1.85;;
52322;SDS011;38263;52.920;6.238;2023-04-03T15:49:26;2.58;;;1.48;;
52322;SDS011;38263;52.920;6.238;2023-04-03T15:51:53;2.08;;;1.55;;
52322;SDS011;38263;52.920;6.238;2023-04-03T15:54:21;1.88;;;1.00;;
52322;SDS011;38263;52.920;6.238;2023-04-03T15:56:48;2.38;;;1.42;;
52322;SDS011;38263;52.920;6.238;2023-04-03T15:59:14;4.10;;;1.52;;
52322;SDS011;38263;52.920;6.238;2023-04-03T16:01:40;2.40;;;0.98;;
52322;SDS011;38263;52.920;6.238;2023-04-03T16:04:07;4.28;;;1.20;;
52322;SDS011;38263;52.920;6.238;2023-04-03T16:06:34;1.92;;;1.33;;
52322;SDS011;38263;52.920;6.238;2023-04-03T16:09:00;3.67;;;1.60;;
52322;SDS011;38263;52.920;6.238;2023-04-03T16:11:26;1.90;;;1.48;;
52322;SDS011;38263;52.920;6.238;2023-04-03T16:17:15;2.28;;;1.30;;
52322;SDS011;38263;52.920;6.238;2023-04-03T16:19:41;2.75;;;1.70;;